Latest Weather Observations for Argyle

IDD60801

Issued at 9:51 am CST Monday 16 September 2019 (issued every 10 minutes, with the page automatically refreshed every 10 minutes)

About weather observations | Map of weather stations | Latest weather observations for NT | Other Formats
Station Details ID: 002064 Name: ARGYLE AERODROME Lat: -16.64 Lon: 128.45 Height: 164.0 m
Data from the previous 72 hours. | See also: Recent months at Argyle
Date/Time
CST
Temp
°C
App
Temp
°C
Dew
Point
°C
Rel
Hum
%
Delta-T
°C
Wind Press
QNH
hPa
Press
MSL
hPa
Rain since
9am
mm
Dir  Spd
km/h
Gust
km/h
Spd
kts
Gust
kts
16/09:30am 28.4 24.4 -2.6 13 14.1 E 9 15 5 8 1018.4 1017.3 0.0
16/09:00am 27.2 23.2 -2.6 14 13.4 SE 9 15 5 8 1018.1 1017.1 0.0
16/08:30am 25.8 21.7 -2.8 15 12.6 SE 9 11 5 6 1017.7 1016.6 0.0
16/08:21am 26.0 22.5 -1.7 16 12.5 ESE 7 9 4 5 1017.7 - 0.0
16/08:00am 24.4 21.1 -1.4 18 11.6 ESE 6 9 3 5 1017.4 1016.3 0.0
16/07:30am 21.0 19.0 -0.3 24 9.5 CALM 0 0 0 0 1016.9 1015.8 0.0
16/07:00am 21.0 17.4 -2.1 21 10.0 NE 7 11 4 6 1016.4 1015.3 0.0
16/06:30am 22.3 18.3 -2.4 19 10.7 E 9 13 5 7 1016.2 1015.1 0.0
16/06:00am 24.4 20.9 -1.4 18 11.6 SSW 7 9 4 5 1015.5 1014.4 0.0
16/05:30am 25.0 21.5 -1.7 17 12.0 SW 7 9 4 5 1015.4 1014.3 0.0
16/05:00am 24.3 21.2 -0.1 20 11.2 W 6 7 3 4 1015.1 1014.0 0.0
16/04:30am 23.2 20.0 -0.3 21 10.7 W 6 7 3 4 1015.0 1013.9 0.0
16/04:00am 22.6 19.4 -0.2 22 10.3 NW 6 7 3 4 1015.0 1013.9 0.0
16/03:30am 22.7 19.7 0.5 23 10.2 WNW 6 7 3 4 1015.1 1014.0 0.0
16/03:00am 22.6 19.7 1.6 25 9.9 WSW 6 7 3 4 1015.2 1014.1 0.0
16/02:30am 22.0 18.9 1.1 25 9.7 WSW 7 9 4 5 1015.3 1014.2 0.0
16/02:00am 23.6 21.8 1.3 23 10.5 CALM 0 0 0 0 1015.3 1014.2 0.0
16/01:30am 24.9 21.7 -0.3 19 11.6 SSE 6 7 3 4 1015.3 1014.2 0.0
16/01:00am 25.3 23.3 0.0 19 11.8 CALM 0 0 0 0 1015.5 1014.4 0.0
16/12:30am 23.5 21.5 -0.1 21 10.8 CALM 0 0 0 0 1015.6 1014.5 0.0
16/12:00am 25.7 22.6 0.4 19 11.9 SSE 6 7 3 4 1015.8 1014.7 0.0
 
Date/Time
CST
Temp
°C
App
Temp
°C
Dew
Point
°C
Rel
Hum
%
Delta-T
°C
Wind Press
QNH
hPa
Press
MSL
hPa
Rain since
9am
mm
Dir  Spd
km/h
Gust
km/h
Spd
kts
Gust
kts
15/11:30pm 25.4 21.6 1.5 21 11.4 SSE 11 13 6 7 1015.7 1014.6 0.0
15/11:00pm 25.1 22.0 1.3 21 11.3 WSW 7 11 4 6 1015.7 1014.6 0.0
15/10:30pm 26.1 22.6 1.4 20 11.8 WSW 9 9 5 5 1015.9 1014.8 0.0
15/10:00pm 27.9 25.0 1.4 18 12.9 SSW 6 7 3 4 1015.9 1014.8 0.0
15/09:30pm 27.3 25.3 0.1 17 12.8 CALM 0 0 0 0 1015.8 1014.7 0.0
15/09:00pm 28.2 25.2 0.9 17 13.2 ESE 6 9 3 5 1015.5 1014.4 0.0
15/08:30pm 28.4 25.3 0.2 16 13.4 NE 6 7 3 4 1015.4 1014.3 0.0
15/08:00pm 29.5 26.2 0.2 15 14.1 NE 7 9 4 5 1015.1 1014.0 0.0
15/07:30pm 30.0 26.2 -0.4 14 14.5 NNE 9 11 5 6 1014.9 1013.8 0.0
15/07:00pm 31.2 27.4 -0.5 13 15.2 NE 9 11 5 6 1014.6 1013.5 0.0
15/06:30pm 32.8 29.2 0.8 13 15.9 NE 9 15 5 8 1014.4 1013.3 0.0
15/06:00pm 33.9 29.1 0.5 12 16.6 E 15 20 8 11 1014.1 1013.0 0.0
15/05:30pm 34.1 29.8 0.7 12 16.7 NE 13 22 7 12 1013.9 1012.8 0.0
15/05:00pm 34.5 28.9 -0.2 11 17.1 E 19 50 10 27 1013.8 1012.7 0.0
15/04:55pm 35.0 29.8 0.2 11 17.4 SE 17 50 9 27 1013.6 1012.5 0.0
15/04:30pm 34.7 30.2 -0.1 11 17.2 ENE 13 28 7 15 1013.9 1012.8 0.0
15/04:00pm 34.7 29.5 -0.1 11 17.2 E 17 30 9 16 1014.0 1012.9 0.0
15/03:30pm 33.9 28.8 0.5 12 16.6 NE 17 30 9 16 1014.2 1013.1 0.0
15/03:00pm 34.1 29.2 1.8 13 16.4 NE 17 43 9 23 1014.5 1013.4 0.0
15/02:30pm 33.8 28.6 2.6 14 16.1 NNE 19 33 10 18 1014.9 1013.8 0.0
15/02:00pm 33.7 30.6 3.5 15 15.8 NE 9 17 5 9 1015.4 1014.3 0.0
15/01:30pm 32.9 28.3 3.8 16 15.2 NE 17 30 9 16 1016.0 1014.9 0.0
15/01:00pm 32.3 27.7 5.7 19 14.3 NNE 19 30 10 16 1016.5 1015.4 0.0
15/12:30pm 32.5 27.8 5.1 18 14.6 NE 19 30 10 16 1017.0 1015.9 0.0
15/12:00pm 32.0 27.8 5.5 19 14.2 NE 17 30 9 16 1017.7 1016.6 0.0
15/11:30am 31.5 26.2 5.1 19 14.0 ENE 22 33 12 18 1018.0 1017.0 0.0
15/11:00am 30.1 25.6 4.0 19 13.5 ENE 17 28 9 15 1018.6 1017.5 0.0
15/10:30am 29.7 24.8 2.1 17 13.7 ENE 17 30 9 16 1018.9 1017.8 0.0
15/10:00am 28.9 24.3 1.4 17 13.5 ENE 15 26 8 14 1019.2 1018.1 0.0
15/09:30am 28.6 24.1 -0.5 15 13.7 ENE 13 20 7 11 1019.2 1018.1 0.0
15/09:00am 27.4 23.0 -2.4 14 13.5 E 11 17 6 9 1019.1 1018.0 0.0
15/08:30am 26.1 22.3 -3.5 14 13.0 E 7 11 4 6 1018.9 1017.8 0.0
15/08:00am 23.1 19.7 -1.8 19 11.0 SW 6 6 3 3 1018.6 1017.5 0.0
15/07:30am 21.6 18.0 -2.3 20 10.3 SW 7 9 4 5 1017.8 1016.7 0.0
15/07:00am 19.5 17.3 -1.6 24 9.1 CALM 0 0 0 0 1017.3 1016.2 0.0
15/06:30am 20.9 17.4 -1.6 22 9.8 ESE 7 9 4 5 1016.8 1015.7 0.0
15/06:00am 20.4 18.1 -2.0 22 9.6 CALM 0 0 0 0 1016.4 1015.3 0.0
15/05:30am 21.0 18.8 -1.5 22 9.8 CALM 0 0 0 0 1016.1 1015.0 0.0
15/05:00am 21.2 19.0 -1.3 22 9.9 CALM 0 0 0 0 1015.9 1014.8 0.0
15/04:30am 21.1 17.8 -1.4 22 9.8 ENE 6 9 3 5 1015.7 1014.6 0.0
15/04:00am 21.6 17.3 -1.6 21 10.1 E 11 15 6 8 1015.6 1014.5 0.0
15/03:30am 21.9 17.6 -1.4 21 10.2 E 11 13 6 7 1015.7 1014.6 0.0
15/03:00am 22.2 18.4 -1.1 21 10.3 E 9 13 5 7 1015.8 1014.7 0.0
15/02:30am 23.1 19.3 -1.1 20 10.8 E 9 13 5 7 1016.1 1015.0 0.0
15/02:00am 23.2 19.4 -1.0 20 10.9 ESE 9 11 5 6 1016.2 1015.1 0.0
15/01:30am 23.9 19.8 -0.4 20 11.1 E 11 13 6 7 1016.5 1015.4 0.0
15/01:00am 24.1 20.0 -0.2 20 11.1 ESE 11 13 6 7 1016.6 1015.5 0.0
15/12:30am 24.0 20.0 0.4 21 10.9 ESE 11 11 6 6 1016.8 1015.7 0.0
15/12:00am 24.6 21.0 0.8 21 11.2 ESE 9 11 5 6 1017.0 1015.9 0.0
 
Date/Time
CST
Temp
°C
App
Temp
°C
Dew
Point
°C
Rel
Hum
%
Delta-T
°C
Wind Press
QNH
hPa
Press
MSL
hPa
Rain since
9am
mm
Dir  Spd
km/h
Gust
km/h
Spd
kts
Gust
kts
14/11:30pm 25.7 22.6 1.1 20 11.7 ESE 7 11 4 6 1017.0 1015.9 0.0
14/11:00pm 26.1 22.5 0.7 19 12.0 SE 9 11 5 6 1017.0 1015.9 0.0
14/10:30pm 26.4 23.4 1.7 20 11.9 S 7 9 4 5 1017.1 1016.0 0.0
14/10:00pm 25.5 22.4 0.2 19 11.8 ESE 6 11 3 6 1017.1 1016.0 0.0
14/09:30pm 26.8 24.0 -0.3 17 12.7 SSE 4 7 2 4 1017.0 1015.9 0.0
14/09:00pm 28.1 24.5 0.8 17 13.1 ENE 9 11 5 6 1016.8 1015.7 0.0
14/08:30pm 28.1 24.9 0.8 17 13.1 ENE 7 7 4 4 1016.6 1015.5 0.0
14/08:00pm 28.5 25.1 -0.6 15 13.7 ENE 7 9 4 5 1016.4 1015.3 0.0
14/07:30pm 29.0 25.5 -1.2 14 14.1 ENE 7 9 4 5 1016.0 1014.9 0.0
14/07:00pm 30.6 26.8 -0.9 13 15.0 E 9 15 5 8 1015.8 1014.7 0.0
14/06:30pm 32.2 27.3 -0.8 12 15.9 E 15 20 8 11 1015.6 1014.5 0.0
14/06:00pm 33.0 28.0 -1.4 11 16.5 E 15 22 8 12 1015.4 1014.3 0.0
14/05:30pm 33.7 28.8 -0.8 11 16.8 E 15 24 8 13 1015.3 1014.2 0.0
14/05:00pm 33.6 28.1 0.3 12 16.5 E 19 28 10 15 1015.2 1014.1 0.0
14/04:30pm 34.2 28.3 1.9 13 16.5 E 22 35 12 19 1015.2 1014.1 0.0
14/04:00pm 34.5 29.0 2.1 13 16.6 E 20 33 11 18 1015.3 1014.2 0.0
14/03:41pm 34.3 28.8 2.0 13 16.5 E 20 39 11 21 1015.4 1014.3 0.0
14/03:30pm 33.5 29.2 1.3 13 16.2 ENE 13 24 7 13 1015.6 1014.5 0.0
14/03:00pm 34.0 29.1 1.7 13 16.4 E 17 30 9 16 1015.8 1014.7 0.0
14/02:30pm 33.2 27.2 1.1 13 16.1 ENE 22 35 12 19 1016.3 1015.2 0.0
14/02:00pm 32.7 27.2 0.7 13 15.9 E 19 32 10 17 1016.8 1015.7 0.0
14/01:30pm 32.7 27.2 1.7 14 15.6 E 20 33 11 18 1017.6 1016.5 0.0
14/01:00pm 32.2 26.8 2.3 15 15.2 ENE 20 33 11 18 1018.2 1017.2 0.0
14/12:30pm 32.6 27.7 1.7 14 15.5 ENE 17 32 9 17 1019.0 1017.9 0.0
14/12:00pm 32.7 26.6 0.7 13 15.9 E 22 39 12 21 1019.5 1018.4 0.0
14/11:30am 31.5 25.2 1.8 15 14.8 E 24 35 13 19 1020.0 1018.9 0.0
14/11:00am 31.4 24.4 1.7 15 14.8 E 28 39 15 21 1020.4 1019.3 0.0
14/10:30am 30.5 24.3 0.0 14 14.7 ENE 22 32 12 17 1020.6 1019.5 0.0
14/10:00am 29.2 24.2 -1.0 14 14.2 ENE 15 24 8 13 1021.0 1019.9 0.0
14/09:30am 27.3 21.6 -3.5 13 13.6 E 17 26 9 14 1021.2 1020.1 0.0
14/09:00am 26.3 20.2 -4.3 13 13.2 ESE 19 26 10 14 1021.1 1020.0 0.0
14/08:30am 24.6 19.8 -5.6 13 12.5 E 11 15 6 8 1020.9 1019.8 0.0
14/08:00am 23.3 17.8 -5.7 14 11.9 ESE 15 20 8 11 1020.5 1019.4 0.0
14/07:30am 21.4 16.3 -5.4 16 10.8 ESE 13 17 7 9 1019.6 1018.5 0.0
14/07:00am 20.0 14.5 -5.8 17 10.2 E 15 17 8 9 1019.2 1018.1 0.0
14/06:30am 19.9 14.7 -5.8 17 10.1 E 13 17 7 9 1018.9 1017.8 0.0
14/06:00am 20.4 15.2 -6.2 16 10.5 E 13 17 7 9 1018.7 1017.6 0.0
14/05:30am 20.4 15.2 -6.2 16 10.5 E 13 19 7 10 1018.2 1017.2 0.0
14/05:00am 20.7 15.5 -6.0 16 10.6 E 13 15 7 8 1017.9 1016.9 0.0
14/04:30am 20.5 15.3 -6.1 16 10.5 E 13 15 7 8 1017.8 1016.7 0.0
14/04:00am 20.6 15.4 -6.1 16 10.6 E 13 15 7 8 1017.8 1016.7 0.0
14/03:30am 21.5 16.3 -6.2 15 11.0 ESE 13 15 7 8 1017.7 1016.6 0.0
14/03:00am 21.6 16.4 -6.1 15 11.1 ESE 13 15 7 8 1017.9 1016.9 0.0
14/02:30am 22.5 17.3 -6.3 14 11.6 E 13 17 7 9 1017.9 1016.9 0.0
14/02:00am 22.7 17.6 -5.2 15 11.5 E 13 17 7 9 1018.1 1017.1 0.0
14/01:30am 22.4 17.5 -3.8 17 11.0 E 13 13 7 7 1018.4 1017.3 0.0
14/01:00am 22.8 18.1 -2.0 19 10.9 E 13 15 7 8 1018.5 1017.4 0.0
14/12:30am 23.5 19.3 -0.7 20 10.9 E 11 13 6 7 1018.5 1017.4 0.0
14/12:00am 23.4 19.3 -0.1 21 10.7 ENE 11 13 6 7 1018.7 1017.6 0.0
 
Date/Time
CST
Temp
°C
App
Temp
°C
Dew
Point
°C
Rel
Hum
%
Delta-T
°C
Wind Press
QNH
hPa
Press
MSL
hPa
Rain since
9am
mm
Dir  Spd
km/h
Gust
km/h
Spd
kts
Gust
kts
13/11:30pm 24.4 20.3 0.0 20 11.2 ESE 11 15 6 8 1018.7 1017.6 0.0
13/11:00pm 24.6 21.0 0.8 21 11.2 E 9 11 5 6 1018.7 1017.6 0.0
13/10:30pm 25.1 21.1 0.6 20 11.5 ESE 11 15 6 8 1018.6 1017.5 0.0
13/10:00pm 25.8 22.2 0.5 19 11.9 ESE 9 11 5 6 1018.5 1017.4 0.0
13/09:30pm 26.5 22.9 0.3 18 12.3 SE 9 11 5 6 1018.2 1017.2 0.0
13/09:00pm 27.5 23.9 0.3 17 12.9 SSE 9 11 5 6 1018.0 1017.0 0.0
13/08:30pm 27.6 24.3 0.4 17 12.9 E 7 9 4 5 1017.7 1016.6 0.0
13/08:00pm 27.6 24.5 0.4 17 13.0 E 6 7 3 4 1017.4 1016.3 0.0
13/07:30pm 28.0 24.7 -1.0 15 13.5 E 6 7 3 4 1017.0 1015.9 0.0
13/07:00pm 30.1 26.0 -0.3 14 14.6 E 11 15 6 8 1016.7 1015.6 0.0
13/06:30pm 31.7 26.1 -0.1 13 15.4 ESE 19 24 10 13 1016.4 1015.3 0.0
13/06:00pm 32.6 27.3 -0.5 12 16.1 E 17 28 9 15 1016.2 1015.1 0.0
13/05:30pm 33.1 28.3 -0.1 12 16.3 E 15 33 8 18 1016.2 1015.1 0.0
13/05:00pm 33.2 28.0 0.0 12 16.3 E 17 26 9 14 1016.3 1015.2 0.0
13/04:30pm 33.7 28.8 -0.8 11 16.8 ENE 15 24 8 13 1016.3 1015.2 0.0
13/04:00pm 33.0 27.2 -1.4 11 16.5 E 19 30 10 16 1016.4 1015.3 0.0
13/03:30pm 33.3 27.0 -1.1 11 16.6 E 22 33 12 18 1016.6 1015.5 0.0
13/03:00pm 33.4 26.9 -2.3 10 16.9 ENE 22 35 12 19 1017.1 1016.0 0.0
13/02:30pm 33.2 27.3 -2.5 10 16.8 ENE 19 32 10 17 1017.4 1016.3 0.0
13/02:00pm 32.6 26.4 -2.9 10 16.6 E 20 37 11 20 1018.0 1017.0 0.0
13/01:30pm 32.5 24.8 -3.0 10 16.5 E 28 41 15 22 1018.5 1017.4 0.0
13/01:00pm 31.9 24.9 -3.5 10 16.3 ENE 24 37 13 20 1019.0 1017.9 0.0
13/12:30pm 31.5 25.0 -2.5 11 15.8 ENE 22 37 12 20 1019.5 1018.4 0.0
13/12:00pm 31.7 25.6 -2.3 11 15.9 ENE 20 30 11 16 1020.0 1018.9 0.0
13/11:30am 30.7 24.5 -3.1 11 15.4 ENE 20 32 11 17 1020.5 1019.4 0.0

Other formats

Comma delimited format used in spreadsheet applications
http://www.bom.gov.au/fwo/IDD60801/IDD60801.94217.axf

JavaScript Object Notation format (JSON) in row-major order
http://www.bom.gov.au/fwo/IDD60801/IDD60801.94217.json

Data quality

Most of these data are generated automatically and are frequently updated. Quality checks on data are not normally performed. It is possible for incorrect values to appear. Refer to information at About Latest Weather Observations and please check the disclaimer before using these data.